sensor_id;sensor_type;location;lat;lon;timestamp;P1;durP1;ratioP1;P2;durP2;ratioP2
15287;SDS011;7745;48.708;9.026;2023-06-22T00:02:00;12.87;;;9.03;;
15287;SDS011;7745;48.708;9.026;2023-06-22T00:04:28;12.10;;;9.77;;
15287;SDS011;7745;48.708;9.026;2023-06-22T00:06:55;10.47;;;9.17;;
15287;SDS011;7745;48.708;9.026;2023-06-22T00:09:21;10.57;;;9.00;;
15287;SDS011;7745;48.708;9.026;2023-06-22T00:11:49;13.83;;;8.97;;
15287;SDS011;7745;48.708;9.026;2023-06-22T00:14:16;10.93;;;9.10;;
15287;SDS011;7745;48.708;9.026;2023-06-22T00:16:43;10.90;;;8.90;;
15287;SDS011;7745;48.708;9.026;2023-06-22T00:19:13;11.52;;;8.77;;
15287;SDS011;7745;48.708;9.026;2023-06-22T00:21:40;12.20;;;9.20;;
15287;SDS011;7745;48.708;9.026;2023-06-22T00:24:07;11.40;;;9.30;;
15287;SDS011;7745;48.708;9.026;2023-06-22T00:26:34;10.00;;;8.93;;
15287;SDS011;7745;48.708;9.026;2023-06-22T00:29:02;12.13;;;8.90;;
15287;SDS011;7745;48.708;9.026;2023-06-22T00:31:29;11.00;;;9.17;;
15287;SDS011;7745;48.708;9.026;2023-06-22T00:33:56;10.33;;;9.03;;
15287;SDS011;7745;48.708;9.026;2023-06-22T00:36:22;11.30;;;9.60;;
15287;SDS011;7745;48.708;9.026;2023-06-22T00:38:49;11.33;;;8.93;;
15287;SDS011;7745;48.708;9.026;2023-06-22T00:41:16;12.07;;;10.30;;
15287;SDS011;7745;48.708;9.026;2023-06-22T00:43:45;11.07;;;9.53;;
15287;SDS011;7745;48.708;9.026;2023-06-22T00:46:13;12.70;;;9.67;;
15287;SDS011;7745;48.708;9.026;2023-06-22T00:48:40;10.97;;;9.70;;
15287;SDS011;7745;48.708;9.026;2023-06-22T00:51:09;12.67;;;10.50;;
15287;SDS011;7745;48.708;9.026;2023-06-22T00:53:36;11.90;;;9.37;;
15287;SDS011;7745;48.708;9.026;2023-06-22T00:56:03;13.50;;;9.77;;
15287;SDS011;7745;48.708;9.026;2023-06-22T00:58:31;12.57;;;8.83;;
15287;SDS011;7745;48.708;9.026;2023-06-22T01:00:58;11.53;;;9.53;;
15287;SDS011;7745;48.708;9.026;2023-06-22T01:03:28;11.07;;;8.80;;
15287;SDS011;7745;48.708;9.026;2023-06-22T01:05:55;12.00;;;8.87;;
15287;SDS011;7745;48.708;9.026;2023-06-22T01:08:29;12.30;;;9.23;;
15287;SDS011;7745;48.708;9.026;2023-06-22T01:11:05;12.13;;;9.30;;
15287;SDS011;7745;48.708;9.026;2023-06-22T01:13:35;12.33;;;8.67;;
15287;SDS011;7745;48.708;9.026;2023-06-22T01:16:10;12.17;;;9.20;;
15287;SDS011;7745;48.708;9.026;2023-06-22T01:18:43;8.90;;;7.97;;
15287;SDS011;7745;48.708;9.026;2023-06-22T01:21:12;11.00;;;8.57;;
15287;SDS011;7745;48.708;9.026;2023-06-22T01:23:49;12.20;;;9.33;;
15287;SDS011;7745;48.708;9.026;2023-06-22T01:26:25;9.47;;;8.47;;
15287;SDS011;7745;48.708;9.026;2023-06-22T01:29:02;10.63;;;8.13;;
15287;SDS011;7745;48.708;9.026;2023-06-22T01:31:32;9.23;;;8.23;;
15287;SDS011;7745;48.708;9.026;2023-06-22T01:34:01;11.00;;;8.27;;
15287;SDS011;7745;48.708;9.026;2023-06-22T01:36:30;9.70;;;8.73;;
15287;SDS011;7745;48.708;9.026;2023-06-22T01:38:58;10.10;;;8.43;;
15287;SDS011;7745;48.708;9.026;2023-06-22T01:41:26;12.17;;;9.27;;
15287;SDS011;7745;48.708;9.026;2023-06-22T01:43:55;10.47;;;9.13;;
15287;SDS011;7745;48.708;9.026;2023-06-22T01:46:24;9.73;;;8.83;;
15287;SDS011;7745;48.708;9.026;2023-06-22T01:48:51;11.63;;;9.50;;
15287;SDS011;7745;48.708;9.026;2023-06-22T01:51:18;12.07;;;9.57;;
15287;SDS011;7745;48.708;9.026;2023-06-22T01:53:45;10.13;;;9.13;;
15287;SDS011;7745;48.708;9.026;2023-06-22T01:56:13;10.77;;;9.40;;
15287;SDS011;7745;48.708;9.026;2023-06-22T01:58:44;11.67;;;9.43;;
15287;SDS011;7745;48.708;9.026;2023-06-22T02:01:17;10.53;;;9.43;;
15287;SDS011;7745;48.708;9.026;2023-06-22T02:03:52;15.47;;;9.43;;
15287;SDS011;7745;48.708;9.026;2023-06-22T02:06:24;12.17;;;10.20;;
15287;SDS011;7745;48.708;9.026;2023-06-22T02:09:01;11.30;;;9.00;;
15287;SDS011;7745;48.708;9.026;2023-06-22T02:11:31;9.97;;;8.70;;
15287;SDS011;7745;48.708;9.026;2023-06-22T02:13:59;10.93;;;9.33;;
15287;SDS011;7745;48.708;9.026;2023-06-22T02:16:26;11.03;;;8.60;;
15287;SDS011;7745;48.708;9.026;2023-06-22T02:18:56;10.90;;;9.10;;
15287;SDS011;7745;48.708;9.026;2023-06-22T02:21:28;10.80;;;9.13;;
15287;SDS011;7745;48.708;9.026;2023-06-22T02:23:55;11.33;;;8.87;;
15287;SDS011;7745;48.708;9.026;2023-06-22T02:26:22;12.30;;;10.40;;
15287;SDS011;7745;48.708;9.026;2023-06-22T02:28:50;11.77;;;9.50;;
15287;SDS011;7745;48.708;9.026;2023-06-22T02:31:17;13.07;;;9.80;;
15287;SDS011;7745;48.708;9.026;2023-06-22T02:33:45;13.13;;;9.77;;
15287;SDS011;7745;48.708;9.026;2023-06-22T02:36:14;10.13;;;8.77;;
15287;SDS011;7745;48.708;9.026;2023-06-22T02:38:41;13.13;;;9.33;;
15287;SDS011;7745;48.708;9.026;2023-06-22T02:41:13;10.03;;;9.03;;
15287;SDS011;7745;48.708;9.026;2023-06-22T02:43:43;11.40;;;9.70;;
15287;SDS011;7745;48.708;9.026;2023-06-22T02:46:10;9.97;;;9.07;;
15287;SDS011;7745;48.708;9.026;2023-06-22T02:48:38;11.57;;;9.47;;
15287;SDS011;7745;48.708;9.026;2023-06-22T02:51:04;15.23;;;9.77;;
15287;SDS011;7745;48.708;9.026;2023-06-22T02:53:33;11.43;;;9.60;;
15287;SDS011;7745;48.708;9.026;2023-06-22T02:56:00;10.53;;;9.60;;
15287;SDS011;7745;48.708;9.026;2023-06-22T02:58:28;13.30;;;9.67;;
15287;SDS011;7745;48.708;9.026;2023-06-22T03:00:55;15.87;;;10.77;;
15287;SDS011;7745;48.708;9.026;2023-06-22T03:03:21;11.27;;;10.03;;
15287;SDS011;7745;48.708;9.026;2023-06-22T03:05:51;12.73;;;10.60;;
15287;SDS011;7745;48.708;9.026;2023-06-22T03:08:18;12.47;;;11.13;;
15287;SDS011;7745;48.708;9.026;2023-06-22T03:10:46;12.10;;;10.60;;
15287;SDS011;7745;48.708;9.026;2023-06-22T03:13:13;11.97;;;10.03;;
15287;SDS011;7745;48.708;9.026;2023-06-22T03:15:40;11.50;;;10.17;;
15287;SDS011;7745;48.708;9.026;2023-06-22T03:18:07;12.57;;;9.93;;
15287;SDS011;7745;48.708;9.026;2023-06-22T03:20:34;12.00;;;10.43;;
15287;SDS011;7745;48.708;9.026;2023-06-22T03:23:00;13.37;;;10.33;;
15287;SDS011;7745;48.708;9.026;2023-06-22T03:25:27;11.23;;;10.03;;
15287;SDS011;7745;48.708;9.026;2023-06-22T03:27:55;10.90;;;9.90;;
15287;SDS011;7745;48.708;9.026;2023-06-22T03:30:22;13.33;;;10.20;;
15287;SDS011;7745;48.708;9.026;2023-06-22T03:32:49;13.93;;;9.97;;
15287;SDS011;7745;48.708;9.026;2023-06-22T03:35:16;10.63;;;9.53;;
15287;SDS011;7745;48.708;9.026;2023-06-22T03:37:42;11.80;;;10.60;;
15287;SDS011;7745;48.708;9.026;2023-06-22T03:40:10;12.73;;;10.20;;
15287;SDS011;7745;48.708;9.026;2023-06-22T03:42:37;10.23;;;9.10;;
15287;SDS011;7745;48.708;9.026;2023-06-22T03:45:06;16.20;;;10.50;;
15287;SDS011;7745;48.708;9.026;2023-06-22T03:47:34;13.10;;;9.97;;
15287;SDS011;7745;48.708;9.026;2023-06-22T03:50:00;11.53;;;10.33;;
15287;SDS011;7745;48.708;9.026;2023-06-22T03:52:28;12.27;;;9.80;;
15287;SDS011;7745;48.708;9.026;2023-06-22T03:54:55;16.73;;;9.97;;
15287;SDS011;7745;48.708;9.026;2023-06-22T03:57:22;10.60;;;9.23;;
15287;SDS011;7745;48.708;9.026;2023-06-22T03:59:49;15.27;;;10.67;;
15287;SDS011;7745;48.708;9.026;2023-06-22T04:02:17;11.60;;;9.53;;
15287;SDS011;7745;48.708;9.026;2023-06-22T04:04:44;12.13;;;9.60;;
15287;SDS011;7745;48.708;9.026;2023-06-22T04:07:10;12.30;;;9.67;;
15287;SDS011;7745;48.708;9.026;2023-06-22T04:09:37;11.47;;;10.23;;
15287;SDS011;7745;48.708;9.026;2023-06-22T04:12:04;11.03;;;9.53;;
15287;SDS011;7745;48.708;9.026;2023-06-22T04:14:32;14.67;;;10.27;;
15287;SDS011;7745;48.708;9.026;2023-06-22T04:16:59;14.03;;;10.10;;
15287;SDS011;7745;48.708;9.026;2023-06-22T04:19:27;11.40;;;9.80;;
15287;SDS011;7745;48.708;9.026;2023-06-22T04:21:53;12.93;;;10.23;;
15287;SDS011;7745;48.708;9.026;2023-06-22T04:24:20;11.50;;;9.37;;
15287;SDS011;7745;48.708;9.026;2023-06-22T04:26:47;10.93;;;9.73;;
15287;SDS011;7745;48.708;9.026;2023-06-22T04:29:18;14.00;;;10.73;;
15287;SDS011;7745;48.708;9.026;2023-06-22T04:31:45;11.17;;;10.07;;
15287;SDS011;7745;48.708;9.026;2023-06-22T04:34:15;11.07;;;9.97;;
15287;SDS011;7745;48.708;9.026;2023-06-22T04:36:44;11.33;;;10.23;;
15287;SDS011;7745;48.708;9.026;2023-06-22T04:39:11;11.03;;;9.93;;
15287;SDS011;7745;48.708;9.026;2023-06-22T04:41:38;12.03;;;9.50;;
15287;SDS011;7745;48.708;9.026;2023-06-22T04:44:09;10.73;;;9.63;;
15287;SDS011;7745;48.708;9.026;2023-06-22T04:46:36;9.97;;;8.83;;
15287;SDS011;7745;48.708;9.026;2023-06-22T04:49:04;14.57;;;9.27;;
15287;SDS011;7745;48.708;9.026;2023-06-22T04:51:35;13.33;;;9.50;;
15287;SDS011;7745;48.708;9.026;2023-06-22T04:54:04;10.63;;;9.30;;
15287;SDS011;7745;48.708;9.026;2023-06-22T04:56:31;11.27;;;9.70;;
15287;SDS011;7745;48.708;9.026;2023-06-22T04:58:58;10.90;;;9.00;;
15287;SDS011;7745;48.708;9.026;2023-06-22T05:01:25;11.43;;;9.03;;
15287;SDS011;7745;48.708;9.026;2023-06-22T05:03:52;13.73;;;9.30;;
15287;SDS011;7745;48.708;9.026;2023-06-22T05:06:21;11.00;;;8.40;;
15287;SDS011;7745;48.708;9.026;2023-06-22T05:08:50;11.65;;;8.95;;
15287;SDS011;7745;48.708;9.026;2023-06-22T05:11:18;12.27;;;8.57;;
15287;SDS011;7745;48.708;9.026;2023-06-22T05:13:45;9.77;;;8.73;;
15287;SDS011;7745;48.708;9.026;2023-06-22T05:16:12;11.65;;;8.38;;
15287;SDS011;7745;48.708;9.026;2023-06-22T05:18:38;9.35;;;8.30;;
15287;SDS011;7745;48.708;9.026;2023-06-22T05:21:06;13.63;;;8.38;;
15287;SDS011;7745;48.708;9.026;2023-06-22T05:23:33;12.18;;;7.95;;
15287;SDS011;7745;48.708;9.026;2023-06-22T05:26:00;10.52;;;8.00;;
15287;SDS011;7745;48.708;9.026;2023-06-22T05:28:28;9.80;;;8.02;;
15287;SDS011;7745;48.708;9.026;2023-06-22T05:30:55;9.80;;;7.18;;
15287;SDS011;7745;48.708;9.026;2023-06-22T05:33:22;13.02;;;7.75;;
15287;SDS011;7745;48.708;9.026;2023-06-22T05:35:48;10.77;;;7.63;;
15287;SDS011;7745;48.708;9.026;2023-06-22T05:38:15;8.98;;;6.82;;
15287;SDS011;7745;48.708;9.026;2023-06-22T05:40:42;10.05;;;7.03;;
15287;SDS011;7745;48.708;9.026;2023-06-22T05:43:09;9.77;;;6.65;;
15287;SDS011;7745;48.708;9.026;2023-06-22T05:45:37;10.13;;;7.47;;
15287;SDS011;7745;48.708;9.026;2023-06-22T05:48:04;9.70;;;6.82;;
15287;SDS011;7745;48.708;9.026;2023-06-22T05:50:31;10.00;;;7.53;;
15287;SDS011;7745;48.708;9.026;2023-06-22T05:52:58;8.82;;;6.97;;
15287;SDS011;7745;48.708;9.026;2023-06-22T05:55:25;7.93;;;7.03;;
15287;SDS011;7745;48.708;9.026;2023-06-22T05:57:52;8.50;;;6.32;;
15287;SDS011;7745;48.708;9.026;2023-06-22T06:00:19;13.07;;;7.20;;
15287;SDS011;7745;48.708;9.026;2023-06-22T06:02:49;9.50;;;6.68;;
15287;SDS011;7745;48.708;9.026;2023-06-22T06:05:16;10.50;;;6.88;;
15287;SDS011;7745;48.708;9.026;2023-06-22T06:07:44;10.73;;;6.90;;
15287;SDS011;7745;48.708;9.026;2023-06-22T06:10:11;12.15;;;6.72;;
15287;SDS011;7745;48.708;9.026;2023-06-22T06:12:38;7.07;;;6.00;;
15287;SDS011;7745;48.708;9.026;2023-06-22T06:15:05;10.98;;;6.72;;
15287;SDS011;7745;48.708;9.026;2023-06-22T06:17:32;9.77;;;6.20;;
15287;SDS011;7745;48.708;9.026;2023-06-22T06:20:00;8.10;;;5.60;;
15287;SDS011;7745;48.708;9.026;2023-06-22T06:22:29;10.55;;;6.53;;
15287;SDS011;7745;48.708;9.026;2023-06-22T06:24:56;9.57;;;5.93;;
15287;SDS011;7745;48.708;9.026;2023-06-22T06:27:23;9.60;;;6.07;;
15287;SDS011;7745;48.708;9.026;2023-06-22T06:29:54;11.35;;;5.93;;
15287;SDS011;7745;48.708;9.026;2023-06-22T06:32:20;9.00;;;5.80;;
15287;SDS011;7745;48.708;9.026;2023-06-22T06:34:47;7.43;;;5.68;;
15287;SDS011;7745;48.708;9.026;2023-06-22T06:37:16;8.02;;;5.60;;
15287;SDS011;7745;48.708;9.026;2023-06-22T06:39:43;9.35;;;5.60;;
15287;SDS011;7745;48.708;9.026;2023-06-22T06:42:10;8.93;;;5.90;;
15287;SDS011;7745;48.708;9.026;2023-06-22T06:44:37;7.65;;;5.20;;
15287;SDS011;7745;48.708;9.026;2023-06-22T06:47:03;8.00;;;5.55;;
15287;SDS011;7745;48.708;9.026;2023-06-22T06:49:30;12.45;;;5.90;;
15287;SDS011;7745;48.708;9.026;2023-06-22T06:51:57;6.95;;;5.15;;
15287;SDS011;7745;48.708;9.026;2023-06-22T06:54:25;9.38;;;5.47;;
15287;SDS011;7745;48.708;9.026;2023-06-22T06:56:52;8.10;;;5.60;;
15287;SDS011;7745;48.708;9.026;2023-06-22T06:59:19;7.55;;;5.53;;
15287;SDS011;7745;48.708;9.026;2023-06-22T07:01:46;9.40;;;4.85;;
15287;SDS011;7745;48.708;9.026;2023-06-22T07:04:13;11.50;;;5.43;;
15287;SDS011;7745;48.708;9.026;2023-06-22T07:06:40;8.02;;;5.10;;
15287;SDS011;7745;48.708;9.026;2023-06-22T07:09:07;12.02;;;5.32;;
15287;SDS011;7745;48.708;9.026;2023-06-22T07:11:36;6.80;;;4.68;;
15287;SDS011;7745;48.708;9.026;2023-06-22T07:14:02;8.98;;;5.25;;
15287;SDS011;7745;48.708;9.026;2023-06-22T07:16:29;9.98;;;5.50;;
15287;SDS011;7745;48.708;9.026;2023-06-22T07:18:56;10.85;;;5.13;;
15287;SDS011;7745;48.708;9.026;2023-06-22T07:21:23;7.72;;;4.70;;
15287;SDS011;7745;48.708;9.026;2023-06-22T07:23:50;7.28;;;4.95;;
15287;SDS011;7745;48.708;9.026;2023-06-22T07:26:17;10.27;;;4.78;;
15287;SDS011;7745;48.708;9.026;2023-06-22T07:28:45;7.93;;;4.95;;
15287;SDS011;7745;48.708;9.026;2023-06-22T07:31:11;8.38;;;4.80;;
15287;SDS011;7745;48.708;9.026;2023-06-22T07:33:38;7.88;;;5.15;;
15287;SDS011;7745;48.708;9.026;2023-06-22T07:36:05;8.38;;;5.32;;
15287;SDS011;7745;48.708;9.026;2023-06-22T07:38:33;9.30;;;5.10;;
15287;SDS011;7745;48.708;9.026;2023-06-22T07:41:00;7.75;;;4.70;;
15287;SDS011;7745;48.708;9.026;2023-06-22T07:43:30;8.65;;;5.60;;
15287;SDS011;7745;48.708;9.026;2023-06-22T07:45:59;7.97;;;5.53;;
15287;SDS011;7745;48.708;9.026;2023-06-22T07:48:26;7.47;;;5.18;;
15287;SDS011;7745;48.708;9.026;2023-06-22T07:50:53;10.60;;;5.30;;
15287;SDS011;7745;48.708;9.026;2023-06-22T07:53:20;9.50;;;5.25;;
15287;SDS011;7745;48.708;9.026;2023-06-22T07:55:48;9.32;;;4.70;;
15287;SDS011;7745;48.708;9.026;2023-06-22T07:58:15;9.82;;;5.28;;
15287;SDS011;7745;48.708;9.026;2023-06-22T08:00:43;11.43;;;5.57;;
15287;SDS011;7745;48.708;9.026;2023-06-22T08:03:12;10.38;;;5.10;;
15287;SDS011;7745;48.708;9.026;2023-06-22T08:05:39;7.43;;;5.13;;
15287;SDS011;7745;48.708;9.026;2023-06-22T08:08:06;5.93;;;4.75;;
15287;SDS011;7745;48.708;9.026;2023-06-22T08:10:32;8.70;;;5.05;;
15287;SDS011;7745;48.708;9.026;2023-06-22T08:12:59;9.45;;;5.15;;
15287;SDS011;7745;48.708;9.026;2023-06-22T08:15:26;11.77;;;5.22;;
15287;SDS011;7745;48.708;9.026;2023-06-22T08:17:53;11.05;;;4.93;;
15287;SDS011;7745;48.708;9.026;2023-06-22T08:20:21;8.05;;;5.68;;
15287;SDS011;7745;48.708;9.026;2023-06-22T08:22:48;7.72;;;4.85;;
15287;SDS011;7745;48.708;9.026;2023-06-22T08:25:15;10.00;;;5.45;;
15287;SDS011;7745;48.708;9.026;2023-06-22T08:27:44;10.63;;;5.07;;
15287;SDS011;7745;48.708;9.026;2023-06-22T08:30:12;13.18;;;5.07;;
15287;SDS011;7745;48.708;9.026;2023-06-22T08:32:40;11.27;;;6.15;;
15287;SDS011;7745;48.708;9.026;2023-06-22T08:35:07;13.77;;;5.72;;
15287;SDS011;7745;48.708;9.026;2023-06-22T08:37:35;9.50;;;5.63;;
15287;SDS011;7745;48.708;9.026;2023-06-22T08:40:04;12.95;;;5.40;;
15287;SDS011;7745;48.708;9.026;2023-06-22T08:42:34;11.32;;;5.50;;
15287;SDS011;7745;48.708;9.026;2023-06-22T08:45:00;9.52;;;5.20;;
15287;SDS011;7745;48.708;9.026;2023-06-22T08:47:27;8.32;;;5.40;;
15287;SDS011;7745;48.708;9.026;2023-06-22T08:49:54;10.10;;;5.57;;
15287;SDS011;7745;48.708;9.026;2023-06-22T08:52:21;11.25;;;5.65;;
15287;SDS011;7745;48.708;9.026;2023-06-22T08:54:50;11.48;;;5.55;;
15287;SDS011;7745;48.708;9.026;2023-06-22T08:57:17;10.85;;;5.70;;
15287;SDS011;7745;48.708;9.026;2023-06-22T08:59:43;12.85;;;5.68;;
15287;SDS011;7745;48.708;9.026;2023-06-22T09:02:10;11.98;;;5.55;;
15287;SDS011;7745;48.708;9.026;2023-06-22T09:04:37;10.23;;;5.68;;
15287;SDS011;7745;48.708;9.026;2023-06-22T09:07:04;11.43;;;5.55;;
15287;SDS011;7745;48.708;9.026;2023-06-22T09:09:31;11.27;;;5.53;;
15287;SDS011;7745;48.708;9.026;2023-06-22T09:11:59;12.02;;;5.60;;
15287;SDS011;7745;48.708;9.026;2023-06-22T09:14:26;11.52;;;5.63;;
15287;SDS011;7745;48.708;9.026;2023-06-22T09:16:53;11.10;;;5.43;;
15287;SDS011;7745;48.708;9.026;2023-06-22T09:19:20;11.25;;;5.82;;
15287;SDS011;7745;48.708;9.026;2023-06-22T09:21:47;11.15;;;5.35;;
15287;SDS011;7745;48.708;9.026;2023-06-22T09:24:13;10.88;;;5.70;;
15287;SDS011;7745;48.708;9.026;2023-06-22T09:26:40;10.93;;;5.72;;
15287;SDS011;7745;48.708;9.026;2023-06-22T09:29:08;12.00;;;5.97;;
15287;SDS011;7745;48.708;9.026;2023-06-22T09:31:35;11.07;;;6.20;;
15287;SDS011;7745;48.708;9.026;2023-06-22T09:34:02;13.38;;;5.90;;
15287;SDS011;7745;48.708;9.026;2023-06-22T09:36:29;16.55;;;6.13;;
15287;SDS011;7745;48.708;9.026;2023-06-22T09:38:56;12.85;;;5.35;;
15287;SDS011;7745;48.708;9.026;2023-06-22T09:41:24;14.52;;;6.35;;
15287;SDS011;7745;48.708;9.026;2023-06-22T09:43:52;17.63;;;6.47;;
15287;SDS011;7745;48.708;9.026;2023-06-22T09:46:20;11.25;;;6.43;;
15287;SDS011;7745;48.708;9.026;2023-06-22T09:48:50;13.50;;;5.90;;
15287;SDS011;7745;48.708;9.026;2023-06-22T09:51:16;13.32;;;5.60;;
15287;SDS011;7745;48.708;9.026;2023-06-22T09:53:44;9.23;;;5.63;;
15287;SDS011;7745;48.708;9.026;2023-06-22T09:56:10;10.02;;;5.47;;
15287;SDS011;7745;48.708;9.026;2023-06-22T09:58:39;11.35;;;5.50;;
15287;SDS011;7745;48.708;9.026;2023-06-22T10:01:06;11.55;;;5.60;;
15287;SDS011;7745;48.708;9.026;2023-06-22T10:03:35;15.00;;;5.60;;
15287;SDS011;7745;48.708;9.026;2023-06-22T10:06:02;12.52;;;5.70;;
15287;SDS011;7745;48.708;9.026;2023-06-22T10:08:29;11.75;;;5.63;;
15287;SDS011;7745;48.708;9.026;2023-06-22T10:10:55;13.00;;;5.93;;
15287;SDS011;7745;48.708;9.026;2023-06-22T10:13:22;11.05;;;5.65;;
15287;SDS011;7745;48.708;9.026;2023-06-22T10:15:49;11.57;;;5.63;;
15287;SDS011;7745;48.708;9.026;2023-06-22T10:18:16;11.38;;;5.55;;
15287;SDS011;7745;48.708;9.026;2023-06-22T10:20:44;10.05;;;5.72;;
15287;SDS011;7745;48.708;9.026;2023-06-22T10:23:13;13.20;;;5.30;;
15287;SDS011;7745;48.708;9.026;2023-06-22T10:25:40;15.40;;;6.13;;
15287;SDS011;7745;48.708;9.026;2023-06-22T10:28:07;11.77;;;5.95;;
15287;SDS011;7745;48.708;9.026;2023-06-22T10:30:34;12.23;;;6.10;;
15287;SDS011;7745;48.708;9.026;2023-06-22T10:33:00;10.07;;;5.85;;
15287;SDS011;7745;48.708;9.026;2023-06-22T10:35:27;13.93;;;5.88;;
15287;SDS011;7745;48.708;9.026;2023-06-22T10:37:55;12.90;;;5.60;;
15287;SDS011;7745;48.708;9.026;2023-06-22T10:40:22;11.32;;;5.38;;
15287;SDS011;7745;48.708;9.026;2023-06-22T10:42:49;16.40;;;6.13;;
15287;SDS011;7745;48.708;9.026;2023-06-22T10:45:16;13.40;;;5.80;;
15287;SDS011;7745;48.708;9.026;2023-06-22T10:47:43;10.75;;;5.43;;
15287;SDS011;7745;48.708;9.026;2023-06-22T10:50:10;11.65;;;5.43;;
15287;SDS011;7745;48.708;9.026;2023-06-22T10:52:37;12.65;;;5.80;;
15287;SDS011;7745;48.708;9.026;2023-06-22T10:55:05;10.23;;;6.07;;
15287;SDS011;7745;48.708;9.026;2023-06-22T10:57:33;12.68;;;5.80;;
15287;SDS011;7745;48.708;9.026;2023-06-22T10:59:59;12.85;;;5.85;;
15287;SDS011;7745;48.708;9.026;2023-06-22T11:02:26;17.90;;;5.97;;
15287;SDS011;7745;48.708;9.026;2023-06-22T11:04:53;11.75;;;6.18;;
15287;SDS011;7745;48.708;9.026;2023-06-22T11:07:20;10.52;;;5.65;;
15287;SDS011;7745;48.708;9.026;2023-06-22T11:09:46;11.23;;;5.57;;
15287;SDS011;7745;48.708;9.026;2023-06-22T11:12:15;13.20;;;6.28;;
15287;SDS011;7745;48.708;9.026;2023-06-22T11:14:41;11.07;;;5.78;;
15287;SDS011;7745;48.708;9.026;2023-06-22T11:17:08;9.68;;;6.00;;
15287;SDS011;7745;48.708;9.026;2023-06-22T11:19:35;13.75;;;6.07;;
15287;SDS011;7745;48.708;9.026;2023-06-22T11:22:02;12.75;;;6.25;;
15287;SDS011;7745;48.708;9.026;2023-06-22T11:24:29;16.80;;;6.47;;
15287;SDS011;7745;48.708;9.026;2023-06-22T11:26:56;13.02;;;6.38;;
15287;SDS011;7745;48.708;9.026;2023-06-22T11:29:24;10.18;;;5.70;;
15287;SDS011;7745;48.708;9.026;2023-06-22T11:31:51;9.55;;;5.70;;
15287;SDS011;7745;48.708;9.026;2023-06-22T11:34:18;15.10;;;6.35;;
15287;SDS011;7745;48.708;9.026;2023-06-22T11:36:44;15.20;;;6.10;;
15287;SDS011;7745;48.708;9.026;2023-06-22T11:39:13;13.88;;;5.55;;
15287;SDS011;7745;48.708;9.026;2023-06-22T11:41:40;12.88;;;5.47;;
15287;SDS011;7745;48.708;9.026;2023-06-22T11:44:07;11.77;;;5.97;;
15287;SDS011;7745;48.708;9.026;2023-06-22T11:46:35;9.77;;;5.63;;
15287;SDS011;7745;48.708;9.026;2023-06-22T11:49:02;13.48;;;6.20;;
15287;SDS011;7745;48.708;9.026;2023-06-22T11:51:29;10.85;;;6.10;;
15287;SDS011;7745;48.708;9.026;2023-06-22T11:53:56;13.57;;;6.35;;
15287;SDS011;7745;48.708;9.026;2023-06-22T11:56:23;11.63;;;6.18;;
15287;SDS011;7745;48.708;9.026;2023-06-22T11:58:50;12.88;;;5.93;;
15287;SDS011;7745;48.708;9.026;2023-06-22T12:01:17;11.18;;;6.57;;
15287;SDS011;7745;48.708;9.026;2023-06-22T12:03:45;13.65;;;6.75;;
15287;SDS011;7745;48.708;9.026;2023-06-22T12:06:11;11.40;;;6.15;;
15287;SDS011;7745;48.708;9.026;2023-06-22T12:08:38;11.73;;;5.85;;
15287;SDS011;7745;48.708;9.026;2023-06-22T12:11:05;17.42;;;6.20;;
15287;SDS011;7745;48.708;9.026;2023-06-22T12:13:32;14.90;;;5.65;;
15287;SDS011;7745;48.708;9.026;2023-06-22T12:15:59;9.35;;;6.22;;
15287;SDS011;7745;48.708;9.026;2023-06-22T12:18:25;10.35;;;5.60;;
15287;SDS011;7745;48.708;9.026;2023-06-22T12:20:53;11.15;;;6.00;;
15287;SDS011;7745;48.708;9.026;2023-06-22T12:23:20;13.30;;;6.00;;
15287;SDS011;7745;48.708;9.026;2023-06-22T12:25:47;16.58;;;6.53;;
15287;SDS011;7745;48.708;9.026;2023-06-22T12:28:14;9.48;;;6.22;;
15287;SDS011;7745;48.708;9.026;2023-06-22T12:30:41;12.07;;;6.05;;
15287;SDS011;7745;48.708;9.026;2023-06-22T12:33:07;12.75;;;6.03;;
15287;SDS011;7745;48.708;9.026;2023-06-22T12:35:34;11.90;;;6.38;;
15287;SDS011;7745;48.708;9.026;2023-06-22T12:38:02;16.73;;;7.18;;
15287;SDS011;7745;48.708;9.026;2023-06-22T12:40:31;13.85;;;6.40;;
15287;SDS011;7745;48.708;9.026;2023-06-22T12:42:58;10.93;;;6.32;;
15287;SDS011;7745;48.708;9.026;2023-06-22T12:45:25;11.77;;;6.65;;
15287;SDS011;7745;48.708;9.026;2023-06-22T12:47:53;10.55;;;5.78;;
15287;SDS011;7745;48.708;9.026;2023-06-22T12:50:20;15.88;;;7.25;;
15287;SDS011;7745;48.708;9.026;2023-06-22T12:52:47;11.38;;;6.40;;
15287;SDS011;7745;48.708;9.026;2023-06-22T12:55:15;16.38;;;6.93;;
15287;SDS011;7745;48.708;9.026;2023-06-22T12:57:42;16.38;;;6.28;;
15287;SDS011;7745;48.708;9.026;2023-06-22T13:00:09;14.18;;;6.40;;
15287;SDS011;7745;48.708;9.026;2023-06-22T13:02:37;10.40;;;6.30;;
15287;SDS011;7745;48.708;9.026;2023-06-22T13:05:04;9.60;;;6.47;;
15287;SDS011;7745;48.708;9.026;2023-06-22T13:07:31;11.98;;;6.93;;
15287;SDS011;7745;48.708;9.026;2023-06-22T13:09:58;16.75;;;6.75;;
15287;SDS011;7745;48.708;9.026;2023-06-22T13:12:26;9.90;;;5.78;;
15287;SDS011;7745;48.708;9.026;2023-06-22T13:14:53;12.07;;;6.45;;
15287;SDS011;7745;48.708;9.026;2023-06-22T13:17:20;14.40;;;6.57;;
15287;SDS011;7745;48.708;9.026;2023-06-22T13:19:47;13.35;;;6.47;;
15287;SDS011;7745;48.708;9.026;2023-06-22T13:25:05;13.95;;;6.30;;
15287;SDS011;7745;48.708;9.026;2023-06-22T13:27:36;17.20;;;5.82;;
15287;SDS011;7745;48.708;9.026;2023-06-22T13:30:03;11.98;;;5.95;;
15287;SDS011;7745;48.708;9.026;2023-06-22T13:32:31;17.50;;;6.32;;
15287;SDS011;7745;48.708;9.026;2023-06-22T13:34:58;11.82;;;6.63;;
15287;SDS011;7745;48.708;9.026;2023-06-22T13:37:25;14.07;;;6.10;;
15287;SDS011;7745;48.708;9.026;2023-06-22T13:39:52;16.95;;;6.15;;
15287;SDS011;7745;48.708;9.026;2023-06-22T13:42:21;14.20;;;5.95;;
15287;SDS011;7745;48.708;9.026;2023-06-22T13:44:49;16.10;;;6.15;;
15287;SDS011;7745;48.708;9.026;2023-06-22T13:47:16;12.55;;;6.22;;
15287;SDS011;7745;48.708;9.026;2023-06-22T13:49:42;18.35;;;6.20;;
15287;SDS011;7745;48.708;9.026;2023-06-22T13:52:09;14.75;;;5.85;;
15287;SDS011;7745;48.708;9.026;2023-06-22T13:54:37;17.67;;;5.97;;
15287;SDS011;7745;48.708;9.026;2023-06-22T13:57:04;14.32;;;5.25;;
15287;SDS011;7745;48.708;9.026;2023-06-22T13:59:32;11.38;;;5.60;;
15287;SDS011;7745;48.708;9.026;2023-06-22T14:02:00;12.98;;;5.75;;
15287;SDS011;7745;48.708;9.026;2023-06-22T14:04:27;14.20;;;5.55;;
15287;SDS011;7745;48.708;9.026;2023-06-22T14:06:53;16.27;;;5.80;;
15287;SDS011;7745;48.708;9.026;2023-06-22T14:09:21;11.35;;;5.90;;
15287;SDS011;7745;48.708;9.026;2023-06-22T14:11:48;15.32;;;6.18;;
15287;SDS011;7745;48.708;9.026;2023-06-22T14:14:15;15.20;;;5.25;;
15287;SDS011;7745;48.708;9.026;2023-06-22T14:16:41;12.68;;;5.65;;
15287;SDS011;7745;48.708;9.026;2023-06-22T14:19:09;11.35;;;5.82;;
15287;SDS011;7745;48.708;9.026;2023-06-22T14:21:36;12.23;;;6.30;;
15287;SDS011;7745;48.708;9.026;2023-06-22T14:24:03;15.52;;;4.75;;
15287;SDS011;7745;48.708;9.026;2023-06-22T14:26:30;13.80;;;4.85;;
15287;SDS011;7745;48.708;9.026;2023-06-22T14:28:57;16.13;;;5.13;;
15287;SDS011;7745;48.708;9.026;2023-06-22T14:31:23;12.13;;;4.05;;
15287;SDS011;7745;48.708;9.026;2023-06-22T14:33:50;12.13;;;4.20;;
15287;SDS011;7745;48.708;9.026;2023-06-22T14:36:18;14.68;;;3.88;;
15287;SDS011;7745;48.708;9.026;2023-06-22T14:38:45;13.30;;;3.75;;
15287;SDS011;7745;48.708;9.026;2023-06-22T14:41:12;16.02;;;3.50;;
15287;SDS011;7745;48.708;9.026;2023-06-22T14:43:43;15.73;;;3.83;;
15287;SDS011;7745;48.708;9.026;2023-06-22T14:46:11;12.15;;;3.70;;
15287;SDS011;7745;48.708;9.026;2023-06-22T14:48:38;11.57;;;3.25;;
15287;SDS011;7745;48.708;9.026;2023-06-22T14:51:05;15.43;;;4.15;;
15287;SDS011;7745;48.708;9.026;2023-06-22T14:53:33;13.18;;;3.95;;
15287;SDS011;7745;48.708;9.026;2023-06-22T14:56:00;9.95;;;3.47;;